Terminal Aerodrome Forecast
Issued by NWS Missoula, MT

Home | Current Version | Previous Version | Text Only | Print | Product List | Glossary On
Versions: 1 2 3 4 5 6 7 8 9 10 11 12 13 14 15 16
000
FTUS45 KMSO 271134
TAFGPI
TAF
KGPI 271134Z 2712/2812 VRB05KT P6SM VCFG SCT040 OVC080
     FM271500 VRB03KT P6SM VCSH BKN050
     FM271800 17008KT P6SM -SHRA BKN040
     FM272200 16007KT P6SM VCSH BKN070
     FM280300 VRB04KT P6SM BKN100=

USA.gov is the U.S. government's official web portal to all federal, state and local government web resources and services.